createdAt,value
2023-02-28T00:00:03.619Z,35.85
2023-02-28T00:02:49.064Z,34.78
2023-02-28T00:05:29.433Z,31.30
2023-02-28T00:08:29.786Z,32.70
2023-02-28T00:11:17.587Z,30.10
2023-02-28T00:14:03.894Z,29.30
2023-02-28T00:16:50.460Z,28.67
2023-02-28T00:19:32.363Z,23.30
2023-02-28T00:22:13.102Z,17.88
2023-02-28T00:27:44.326Z,14.05
2023-02-28T00:30:29.558Z,13.23
2023-02-28T00:33:13.025Z,13.52
2023-02-28T00:36:06.942Z,14.90
2023-02-28T00:38:47.203Z,13.52
2023-02-28T00:41:29.587Z,15.80
2023-02-28T00:44:23.577Z,17.02
2023-02-28T00:47:07.671Z,18.95
2023-02-28T00:50:05.740Z,21.55
2023-02-28T00:52:44.201Z,20.92
2023-02-28T00:55:30.973Z,20.02
2023-02-28T00:58:21.579Z,18.85
2023-02-28T01:01:11.831Z,19.75
2023-02-28T01:03:52.994Z,21.42
2023-02-28T01:09:16.943Z,18.77
2023-02-28T01:11:57.747Z,22.00
2023-02-28T01:14:35.705Z,20.58
2023-02-28T01:17:18.947Z,21.75
2023-02-28T01:20:11.328Z,19.75
2023-02-28T01:22:56.679Z,20.55
2023-02-28T01:25:54.409Z,19.40
2023-02-28T01:28:51.878Z,18.98
2023-02-28T01:31:42.012Z,20.20
2023-02-28T01:34:31.775Z,19.45
2023-02-28T01:37:10.379Z,19.90
2023-02-28T01:39:53.662Z,19.52
2023-02-28T01:45:18.105Z,21.70
2023-02-28T01:48:07.895Z,20.33
2023-02-28T01:50:54.698Z,20.92
2023-02-28T01:54:02.404Z,19.52
2023-02-28T01:56:54.193Z,18.13
2023-02-28T01:59:56.369Z,22.50
2023-02-28T02:02:40.696Z,19.45
2023-02-28T02:08:13.507Z,22.65
2023-02-28T02:10:55.186Z,19.48
2023-02-28T02:14:08.805Z,20.48
2023-02-28T02:17:05.771Z,23.70
2023-02-28T02:20:02.801Z,22.58
2023-02-28T02:23:09.867Z,22.70
2023-02-28T02:26:09.888Z,22.15
2023-02-28T02:29:21.101Z,21.23
2023-02-28T02:32:36.066Z,20.63
2023-02-28T02:35:42.172Z,20.33
2023-02-28T02:38:44.642Z,22.08
2023-02-28T02:41:34.970Z,20.33
2023-02-28T02:44:28.020Z,20.50
2023-02-28T02:47:32.116Z,19.13
2023-02-28T02:50:10.723Z,20.52
2023-02-28T02:52:59.854Z,19.35
2023-02-28T02:55:49.169Z,17.00
2023-02-28T02:58:37.449Z,18.80
2023-02-28T03:01:32.363Z,18.40
2023-02-28T03:04:20.375Z,17.98
2023-02-28T03:07:07.440Z,17.92
2023-02-28T03:10:00.190Z,17.98
2023-02-28T03:13:04.457Z,21.20
2023-02-28T03:15:58.420Z,18.90
2023-02-28T03:19:01.473Z,20.75
2023-02-28T03:21:44.770Z,18.25
2023-02-28T03:24:46.034Z,18.92
2023-02-28T03:28:02.864Z,20.10
2023-02-28T03:31:04.491Z,20.40
2023-02-28T03:33:55.774Z,19.60
2023-02-28T03:36:45.102Z,18.15
2023-02-28T03:39:41.624Z,18.40
2023-02-28T03:42:29.840Z,17.23
2023-02-28T03:45:28.326Z,18.13
2023-02-28T03:48:27.706Z,17.50
2023-02-28T03:51:17.532Z,17.88
2023-02-28T03:54:04.357Z,18.25
2023-02-28T03:57:06.001Z,18.92
2023-02-28T04:00:05.395Z,18.85
2023-02-28T04:02:59.181Z,19.33
2023-02-28T04:05:59.426Z,18.25
2023-02-28T04:08:44.436Z,19.02
2023-02-28T04:12:00.146Z,18.85
2023-02-28T04:14:37.837Z,20.25
2023-02-28T04:17:24.699Z,18.95
2023-02-28T04:19:59.665Z,21.05
2023-02-28T04:22:32.204Z,18.63
2023-02-28T04:25:28.190Z,18.88
2023-02-28T04:28:16.739Z,18.55
2023-02-28T04:31:00.970Z,18.73
2023-02-28T04:33:37.554Z,18.40
2023-02-28T04:42:28.353Z,17.67
2023-02-28T04:45:20.281Z,18.83
2023-02-28T04:48:04.074Z,19.38
2023-02-28T04:51:00.794Z,17.35
2023-02-28T04:53:45.327Z,20.00
2023-02-28T04:56:33.041Z,18.33
2023-02-28T04:59:19.288Z,18.70
2023-02-28T05:02:08.449Z,18.23
2023-02-28T05:04:49.209Z,18.98
2023-02-28T05:10:11.435Z,17.10
2023-02-28T05:13:03.426Z,19.75
2023-02-28T05:15:49.279Z,19.55
2023-02-28T05:18:46.898Z,18.92
2023-02-28T05:22:04.945Z,19.30
2023-02-28T05:24:53.189Z,21.15
2023-02-28T05:27:36.410Z,24.77
2023-02-28T05:30:22.798Z,25.05
2023-02-28T05:33:16.985Z,27.23
2023-02-28T05:35:59.439Z,20.92
2023-02-28T05:38:34.286Z,19.27
2023-02-28T05:41:22.201Z,18.83
2023-02-28T05:44:02.437Z,19.88
2023-02-28T05:46:48.477Z,19.40
2023-02-28T05:49:35.848Z,20.55
2023-02-28T05:52:19.051Z,19.35
2023-02-28T05:55:10.649Z,20.08
2023-02-28T05:57:56.994Z,27.83
2023-02-28T06:00:33.670Z,26.80
2023-02-28T06:03:19.118Z,19.63
2023-02-28T06:06:03.927Z,21.58
2023-02-28T06:08:54.690Z,21.05
2023-02-28T06:11:33.410Z,21.33
2023-02-28T06:14:24.893Z,19.98
2023-02-28T06:17:11.062Z,18.75
2023-02-28T06:20:03.498Z,17.40
2023-02-28T06:23:00.441Z,15.80
2023-02-28T06:25:48.745Z,16.95
2023-02-28T06:28:44.569Z,15.98
2023-02-28T06:31:34.907Z,14.68
2023-02-28T06:34:18.255Z,16.27
2023-02-28T06:37:05.806Z,16.83
2023-02-28T06:39:46.522Z,20.05
2023-02-28T06:42:32.527Z,21.05
2023-02-28T06:45:31.723Z,19.73
2023-02-28T06:48:15.202Z,21.35
2023-02-28T06:50:51.128Z,22.73
2023-02-28T06:53:39.463Z,24.00
2023-02-28T06:56:18.941Z,23.75
2023-02-28T06:59:08.858Z,21.38
2023-02-28T07:01:58.491Z,18.88
2023-02-28T07:04:35.240Z,17.90
2023-02-28T07:07:22.243Z,18.25
2023-02-28T07:10:14.775Z,14.98
2023-02-28T07:13:08.516Z,13.52
2023-02-28T07:16:14.794Z,14.35
2023-02-28T07:19:02.399Z,11.32
2023-02-28T07:21:41.429Z,12.07
2023-02-28T07:24:25.385Z,11.82
2023-02-28T07:27:14.469Z,11.88
2023-02-28T07:30:06.223Z,12.63
2023-02-28T07:33:02.116Z,17.40
2023-02-28T07:35:53.937Z,19.20
2023-02-28T07:38:38.556Z,13.18
2023-02-28T07:41:25.805Z,15.13
2023-02-28T07:44:10.039Z,12.70
2023-02-28T07:46:54.429Z,11.88
2023-02-28T07:49:38.429Z,11.88
2023-02-28T07:55:11.765Z,10.15
2023-02-28T07:57:52.780Z,10.75
2023-02-28T08:00:33.920Z,11.13
2023-02-28T08:03:17.512Z,11.85
2023-02-28T08:05:58.093Z,11.43
2023-02-28T08:08:46.600Z,12.88
2023-02-28T08:11:35.846Z,11.05
2023-02-28T08:14:22.691Z,10.68
2023-02-28T08:17:12.577Z,11.30
2023-02-28T08:19:59.903Z,11.05
2023-02-28T08:22:45.993Z,10.80
2023-02-28T08:28:04.132Z,11.73
2023-02-28T08:30:56.384Z,10.27
2023-02-28T08:33:43.075Z,10.93
2023-02-28T08:36:19.480Z,10.90
2023-02-28T08:39:11.462Z,10.95
2023-02-28T08:42:02.083Z,10.75
2023-02-28T08:44:53.243Z,10.93
2023-02-28T08:47:49.624Z,11.00
2023-02-28T08:50:32.850Z,11.38
2023-02-28T08:56:05.454Z,14.20
2023-02-28T08:58:58.724Z,10.60
2023-02-28T09:01:47.771Z,10.05
2023-02-28T09:04:26.000Z,12.70
2023-02-28T09:07:04.445Z,11.40
2023-02-28T09:09:56.931Z,10.65
2023-02-28T09:12:38.621Z,9.88
2023-02-28T09:15:18.978Z,9.18
2023-02-28T09:17:58.990Z,10.68
2023-02-28T09:20:36.660Z,9.10
2023-02-28T09:23:31.369Z,8.82
2023-02-28T09:26:24.627Z,9.13
2023-02-28T09:29:08.002Z,7.77
2023-02-28T09:32:00.435Z,8.25
2023-02-28T09:34:44.113Z,9.68
2023-02-28T09:37:43.803Z,8.45
2023-02-28T09:40:31.751Z,7.72
2023-02-28T09:43:07.124Z,7.63
2023-02-28T09:46:12.891Z,8.18
2023-02-28T09:48:59.084Z,6.57
2023-02-28T09:52:07.009Z,7.57
2023-02-28T09:54:58.774Z,6.72
2023-02-28T09:57:54.843Z,6.93
2023-02-28T10:00:38.047Z,5.95
2023-02-28T10:03:51.329Z,6.07
2023-02-28T10:06:57.495Z,8.70
2023-02-28T10:09:42.791Z,7.00
2023-02-28T10:12:29.009Z,6.80
2023-02-28T10:15:13.754Z,6.68
2023-02-28T10:18:08.359Z,6.07
2023-02-28T10:20:59.814Z,6.35
2023-02-28T10:23:44.855Z,6.55
2023-02-28T10:26:36.766Z,5.97
2023-02-28T10:29:17.529Z,7.20
2023-02-28T10:32:00.260Z,5.90
2023-02-28T10:34:47.365Z,6.93
2023-02-28T10:37:27.425Z,6.25
2023-02-28T10:40:28.495Z,6.82
2023-02-28T10:43:22.408Z,7.32
2023-02-28T10:46:27.047Z,7.57
2023-02-28T10:49:14.272Z,6.45
2023-02-28T10:54:42.375Z,5.47
2023-02-28T10:57:34.409Z,5.97
2023-02-28T11:00:31.022Z,6.20
2023-02-28T11:03:34.760Z,6.20
2023-02-28T11:06:29.802Z,6.68
2023-02-28T11:09:33.849Z,7.15
2023-02-28T11:12:28.688Z,7.22
2023-02-28T11:15:33.441Z,7.47
2023-02-28T11:18:28.352Z,7.55
2023-02-28T11:21:12.617Z,8.07
2023-02-28T11:24:02.417Z,7.25
2023-02-28T11:27:14.281Z,6.07
2023-02-28T11:29:53.688Z,6.90
2023-02-28T11:32:40.213Z,7.35
2023-02-28T11:35:53.425Z,7.45
2023-02-28T11:38:40.102Z,6.18
2023-02-28T11:41:41.142Z,7.53
2023-02-28T11:44:46.970Z,6.68
2023-02-28T11:48:01.767Z,7.47
2023-02-28T11:54:25.347Z,6.53
2023-02-28T11:57:27.974Z,7.05
2023-02-28T12:00:25.183Z,6.80
2023-02-28T12:03:29.757Z,6.00
2023-02-28T12:06:44.647Z,6.60
2023-02-28T12:12:40.013Z,6.80
2023-02-28T12:15:59.419Z,6.63
2023-02-28T12:18:57.534Z,6.53
2023-02-28T12:21:59.917Z,7.18
2023-02-28T12:25:08.249Z,6.75
2023-02-28T12:27:53.189Z,7.55
2023-02-28T12:31:15.100Z,7.15
2023-02-28T12:33:54.425Z,7.25
2023-02-28T12:36:38.312Z,7.40
2023-02-28T12:39:41.706Z,7.13
2023-02-28T12:42:39.182Z,7.00
2023-02-28T12:45:28.387Z,7.13
2023-02-28T12:48:26.985Z,7.10
2023-02-28T12:51:20.601Z,7.63
2023-02-28T12:54:40.393Z,6.82
2023-02-28T12:57:37.367Z,7.70
2023-02-28T13:00:33.391Z,6.65
2023-02-28T13:03:38.699Z,6.80
2023-02-28T13:06:45.479Z,6.65
2023-02-28T13:09:44.563Z,6.57
2023-02-28T13:12:41.790Z,6.93
2023-02-28T13:15:36.399Z,7.32
2023-02-28T13:18:54.418Z,6.82
2023-02-28T13:21:45.629Z,7.30
2023-02-28T13:24:52.381Z,6.57
2023-02-28T13:27:50.358Z,7.40
2023-02-28T13:31:05.023Z,6.22
2023-02-28T13:34:08.414Z,6.13
2023-02-28T13:36:57.338Z,7.25
2023-02-28T13:40:24.501Z,6.97
2023-02-28T13:43:16.702Z,7.07
2023-02-28T13:46:20.763Z,7.75
2023-02-28T13:49:19.600Z,6.88
2023-02-28T13:52:20.414Z,6.95
2023-02-28T13:55:25.997Z,7.80
2023-02-28T13:58:26.029Z,7.28
2023-02-28T14:01:56.544Z,7.88
2023-02-28T14:05:31.010Z,8.57
2023-02-28T14:08:30.209Z,7.20
2023-02-28T14:11:35.156Z,7.85
2023-02-28T14:14:33.620Z,7.00
2023-02-28T14:17:20.890Z,8.07
2023-02-28T14:20:01.552Z,8.35
2023-02-28T14:22:40.589Z,8.80
2023-02-28T14:25:38.031Z,11.93
2023-02-28T14:28:28.992Z,7.65
2023-02-28T14:31:30.551Z,7.38
2023-02-28T14:34:50.476Z,8.48
2023-02-28T14:37:28.543Z,7.20
2023-02-28T14:40:10.887Z,7.60
2023-02-28T14:43:04.258Z,7.95
2023-02-28T14:45:59.598Z,8.40
2023-02-28T14:48:45.397Z,7.82
2023-02-28T14:51:33.258Z,7.70
2023-02-28T14:54:27.553Z,8.45
2023-02-28T15:00:08.430Z,10.38
2023-02-28T15:02:50.287Z,11.80
2023-02-28T15:05:40.849Z,10.63
2023-02-28T15:08:22.615Z,10.25
2023-02-28T15:11:22.828Z,11.20
2023-02-28T15:14:33.239Z,12.02
2023-02-28T15:17:41.343Z,12.25
2023-02-28T15:20:23.620Z,11.45
2023-02-28T15:23:06.189Z,11.45
2023-02-28T15:25:54.438Z,10.98
2023-02-28T15:28:35.029Z,12.43
2023-02-28T15:31:39.038Z,12.73
2023-02-28T15:34:51.132Z,12.38
2023-02-28T15:37:55.442Z,13.10
2023-02-28T15:41:03.454Z,12.77
2023-02-28T15:43:49.397Z,14.35
2023-02-28T15:46:34.731Z,15.10
2023-02-28T15:49:25.081Z,12.88
2023-02-28T15:52:15.516Z,12.80
2023-02-28T15:55:13.692Z,11.98
2023-02-28T15:57:59.782Z,12.60
2023-02-28T16:00:50.586Z,13.15
2023-02-28T16:03:52.002Z,14.63
2023-02-28T16:06:52.372Z,14.00
2023-02-28T16:09:36.996Z,16.77
2023-02-28T16:12:28.223Z,16.17
2023-02-28T16:15:27.150Z,14.90
2023-02-28T16:18:09.406Z,15.88
2023-02-28T16:21:01.592Z,16.33
2023-02-28T16:23:47.405Z,17.88
2023-02-28T16:26:31.355Z,16.05
2023-02-28T16:32:30.718Z,16.42
2023-02-28T16:35:25.227Z,16.92
2023-02-28T16:38:03.382Z,17.58
2023-02-28T16:40:44.908Z,17.10
2023-02-28T16:43:40.191Z,19.48
2023-02-28T16:46:16.319Z,18.27
2023-02-28T16:49:05.875Z,17.73
2023-02-28T16:51:44.134Z,17.02
2023-02-28T16:54:29.513Z,18.77
2023-02-28T16:57:17.509Z,17.73
2023-02-28T17:00:09.061Z,19.02
2023-02-28T17:03:08.262Z,19.73
2023-02-28T17:05:56.072Z,19.27
2023-02-28T17:08:40.044Z,21.75
2023-02-28T17:11:34.678Z,19.63
2023-02-28T17:14:13.377Z,20.33
2023-02-28T17:17:00.614Z,19.25
2023-02-28T17:22:46.705Z,18.30
2023-02-28T17:25:34.457Z,19.50
2023-02-28T17:28:17.945Z,17.83
2023-02-28T17:31:17.642Z,18.50
2023-02-28T17:34:03.979Z,19.55
2023-02-28T17:36:50.109Z,20.88
2023-02-28T17:39:37.422Z,20.90
2023-02-28T17:42:29.059Z,20.92
2023-02-28T17:45:13.195Z,22.15
2023-02-28T17:48:10.080Z,22.00
2023-02-28T17:51:08.280Z,24.77
2023-02-28T17:54:08.515Z,24.35
2023-02-28T17:57:02.250Z,23.33
2023-02-28T17:59:48.384Z,23.65
2023-02-28T18:02:43.498Z,23.80
2023-02-28T18:05:31.228Z,23.00
2023-02-28T18:11:21.143Z,23.83
2023-02-28T18:14:03.357Z,26.52
2023-02-28T18:16:54.504Z,26.38
2023-02-28T18:19:46.161Z,26.45
2023-02-28T18:22:33.247Z,27.33
2023-02-28T18:25:26.343Z,28.58
2023-02-28T18:28:15.459Z,26.33
2023-02-28T18:31:14.965Z,27.25
2023-02-28T18:34:14.706Z,27.65
2023-02-28T18:37:02.843Z,28.70
2023-02-28T18:39:53.050Z,32.45
2023-02-28T18:42:39.311Z,34.03
2023-02-28T18:45:29.041Z,26.08
2023-02-28T18:48:10.990Z,29.65
2023-02-28T18:50:47.354Z,28.83
2023-02-28T18:53:32.261Z,29.75
2023-02-28T18:56:16.072Z,28.20
2023-02-28T19:01:46.774Z,30.52
2023-02-28T19:04:33.745Z,30.52
2023-02-28T19:07:20.620Z,27.60
2023-02-28T19:10:03.083Z,27.30
2023-02-28T19:13:06.444Z,27.80
2023-02-28T19:15:57.673Z,29.33
2023-02-28T19:18:46.587Z,27.63
2023-02-28T19:21:35.499Z,26.15
2023-02-28T19:24:26.223Z,28.27
2023-02-28T19:27:10.455Z,28.90
2023-02-28T19:29:59.388Z,26.23
2023-02-28T19:33:05.129Z,27.17
2023-02-28T19:36:00.105Z,26.70
2023-02-28T19:38:54.337Z,26.13
2023-02-28T19:44:29.219Z,29.45
2023-02-28T19:47:24.471Z,29.52
2023-02-28T19:50:05.683Z,33.50
2023-02-28T19:55:40.119Z,32.58
2023-02-28T19:58:23.104Z,30.23
2023-02-28T20:01:16.965Z,31.08
2023-02-28T20:04:12.043Z,33.00
2023-02-28T20:06:59.020Z,32.25
2023-02-28T20:09:50.892Z,29.98
2023-02-28T20:12:42.853Z,28.83
2023-02-28T20:15:27.175Z,28.00
2023-02-28T20:18:23.427Z,25.23
2023-02-28T20:21:10.025Z,24.50
2023-02-28T20:23:56.209Z,26.10
2023-02-28T20:26:45.319Z,23.80
2023-02-28T20:29:34.579Z,23.80
2023-02-28T20:32:39.846Z,22.60
2023-02-28T20:35:17.178Z,22.92
2023-02-28T20:38:09.364Z,20.58
2023-02-28T20:41:10.433Z,21.40
2023-02-28T20:43:58.578Z,20.67
2023-02-28T20:46:46.420Z,17.88
2023-02-28T20:49:44.567Z,18.63
2023-02-28T20:52:27.964Z,19.70
2023-02-28T20:55:18.137Z,19.25
2023-02-28T20:58:11.614Z,19.38
2023-02-28T21:01:07.809Z,20.27
2023-02-28T21:04:03.285Z,20.00
2023-02-28T21:06:57.710Z,19.88
2023-02-28T21:09:45.386Z,19.33
2023-02-28T21:12:19.354Z,20.10
2023-02-28T21:15:10.237Z,20.33
2023-02-28T21:17:50.877Z,19.77
2023-02-28T21:20:36.539Z,19.85
2023-02-28T21:23:29.534Z,19.10
2023-02-28T21:26:07.758Z,19.67
2023-02-28T21:28:49.412Z,18.88
2023-02-28T21:31:44.095Z,17.73
2023-02-28T21:34:34.122Z,19.40
2023-02-28T21:37:12.012Z,18.13
2023-02-28T21:39:56.829Z,20.15
2023-02-28T21:42:44.352Z,20.13
2023-02-28T21:45:25.005Z,22.75
2023-02-28T21:48:04.149Z,29.10
2023-02-28T21:51:00.173Z,26.23
2023-02-28T21:53:44.363Z,26.83
2023-02-28T21:56:37.214Z,33.08
2023-02-28T21:59:19.672Z,31.27
2023-02-28T22:02:03.460Z,29.40
2023-02-28T22:07:40.489Z,28.10
2023-02-28T22:10:31.294Z,25.85
2023-02-28T22:13:24.353Z,27.88
2023-02-28T22:16:19.649Z,25.23
2023-02-28T22:19:07.667Z,22.08
2023-02-28T22:22:06.583Z,23.48
2023-02-28T22:24:57.365Z,22.70
2023-02-28T22:27:44.408Z,20.95
2023-02-28T22:30:34.503Z,23.70
2023-02-28T22:33:21.522Z,23.53
2023-02-28T22:36:11.201Z,24.85
2023-02-28T22:39:02.267Z,31.90
2023-02-28T22:41:41.385Z,41.67
2023-02-28T22:44:40.850Z,35.28
2023-02-28T22:47:28.720Z,32.95
2023-02-28T22:53:06.651Z,28.92
2023-02-28T22:56:00.334Z,29.02
2023-02-28T22:58:58.758Z,28.02
2023-02-28T23:01:45.059Z,29.45
2023-02-28T23:04:36.165Z,23.98
2023-02-28T23:07:21.330Z,25.75
2023-02-28T23:10:16.697Z,24.60
2023-02-28T23:12:57.221Z,26.17
2023-02-28T23:15:42.807Z,24.67
2023-02-28T23:18:25.337Z,24.75
2023-02-28T23:21:21.141Z,25.25
2023-02-28T23:24:06.984Z,26.77
2023-02-28T23:26:55.583Z,26.40
2023-02-28T23:29:55.302Z,25.08
2023-02-28T23:32:48.122Z,24.45
2023-02-28T23:35:36.030Z,24.80
2023-02-28T23:38:19.993Z,23.58
2023-02-28T23:41:19.304Z,22.73
2023-02-28T23:44:07.785Z,21.80
2023-02-28T23:46:58.327Z,21.35
2023-02-28T23:50:02.402Z,21.10
2023-02-28T23:52:35.263Z,18.45
2023-02-28T23:55:18.722Z,18.75
2023-02-28T23:58:12.847Z,19.00
